sensor_id;sensor_type;location;lat;lon;timestamp;P1;durP1;ratioP1;P2;durP2;ratioP2
8596;SDS011;4336;49.310;8.646;2022-12-10T00:01:04;15.83;;;12.90;;
8596;SDS011;4336;49.310;8.646;2022-12-10T00:03:30;16.40;;;13.60;;
8596;SDS011;4336;49.310;8.646;2022-12-10T00:05:59;18.50;;;12.87;;
8596;SDS011;4336;49.310;8.646;2022-12-10T00:08:25;15.47;;;13.40;;
8596;SDS011;4336;49.310;8.646;2022-12-10T00:10:51;17.97;;;14.27;;
8596;SDS011;4336;49.310;8.646;2022-12-10T00:13:17;16.87;;;12.10;;
8596;SDS011;4336;49.310;8.646;2022-12-10T00:15:43;17.13;;;14.03;;
8596;SDS011;4336;49.310;8.646;2022-12-10T00:18:09;16.33;;;13.77;;
8596;SDS011;4336;49.310;8.646;2022-12-10T00:20:38;16.57;;;12.07;;
8596;SDS011;4336;49.310;8.646;2022-12-10T00:23:04;14.73;;;11.07;;
8596;SDS011;4336;49.310;8.646;2022-12-10T00:25:33;16.87;;;11.97;;
8596;SDS011;4336;49.310;8.646;2022-12-10T00:28:00;19.93;;;12.67;;
8596;SDS011;4336;49.310;8.646;2022-12-10T00:30:26;18.23;;;12.80;;
8596;SDS011;4336;49.310;8.646;2022-12-10T00:32:53;17.00;;;12.27;;
8596;SDS011;4336;49.310;8.646;2022-12-10T00:35:19;23.57;;;13.57;;
8596;SDS011;4336;49.310;8.646;2022-12-10T00:37:45;15.70;;;12.03;;
8596;SDS011;4336;49.310;8.646;2022-12-10T00:40:12;15.37;;;12.37;;
8596;SDS011;4336;49.310;8.646;2022-12-10T00:42:38;18.10;;;11.97;;
8596;SDS011;4336;49.310;8.646;2022-12-10T00:45:05;20.17;;;12.53;;
8596;SDS011;4336;49.310;8.646;2022-12-10T00:47:31;17.87;;;12.50;;
8596;SDS011;4336;49.310;8.646;2022-12-10T00:49:58;21.30;;;13.13;;
8596;SDS011;4336;49.310;8.646;2022-12-10T00:52:24;19.40;;;13.33;;
8596;SDS011;4336;49.310;8.646;2022-12-10T00:54:50;18.13;;;13.17;;
8596;SDS011;4336;49.310;8.646;2022-12-10T00:57:17;18.50;;;12.77;;
8596;SDS011;4336;49.310;8.646;2022-12-10T00:59:43;17.80;;;12.10;;
8596;SDS011;4336;49.310;8.646;2022-12-10T01:02:09;13.70;;;11.70;;
8596;SDS011;4336;49.310;8.646;2022-12-10T01:04:35;18.07;;;12.10;;
8596;SDS011;4336;49.310;8.646;2022-12-10T01:07:01;18.93;;;13.07;;
8596;SDS011;4336;49.310;8.646;2022-12-10T01:09:28;17.80;;;12.80;;
8596;SDS011;4336;49.310;8.646;2022-12-10T01:11:55;16.37;;;11.33;;
8596;SDS011;4336;49.310;8.646;2022-12-10T01:14:23;18.03;;;13.03;;
8596;SDS011;4336;49.310;8.646;2022-12-10T01:16:50;17.63;;;12.93;;
8596;SDS011;4336;49.310;8.646;2022-12-10T01:19:18;16.43;;;11.67;;
8596;SDS011;4336;49.310;8.646;2022-12-10T01:21:45;16.10;;;12.77;;
8596;SDS011;4336;49.310;8.646;2022-12-10T01:24:15;15.50;;;12.33;;
8596;SDS011;4336;49.310;8.646;2022-12-10T01:26:43;17.13;;;12.87;;
8596;SDS011;4336;49.310;8.646;2022-12-10T01:29:09;15.57;;;12.13;;
8596;SDS011;4336;49.310;8.646;2022-12-10T01:31:38;16.30;;;12.70;;
8596;SDS011;4336;49.310;8.646;2022-12-10T01:34:05;17.10;;;12.77;;
8596;SDS011;4336;49.310;8.646;2022-12-10T01:36:36;17.37;;;12.00;;
8596;SDS011;4336;49.310;8.646;2022-12-10T01:39:03;16.33;;;13.07;;
8596;SDS011;4336;49.310;8.646;2022-12-10T01:41:32;15.40;;;11.23;;
8596;SDS011;4336;49.310;8.646;2022-12-10T01:44:00;18.07;;;12.57;;
8596;SDS011;4336;49.310;8.646;2022-12-10T01:46:28;19.80;;;12.93;;
8596;SDS011;4336;49.310;8.646;2022-12-10T01:48:55;14.90;;;11.90;;
8596;SDS011;4336;49.310;8.646;2022-12-10T01:51:23;19.17;;;12.20;;
8596;SDS011;4336;49.310;8.646;2022-12-10T01:53:50;15.07;;;11.73;;
8596;SDS011;4336;49.310;8.646;2022-12-10T01:56:17;16.17;;;11.90;;
8596;SDS011;4336;49.310;8.646;2022-12-10T01:58:43;18.90;;;11.93;;
8596;SDS011;4336;49.310;8.646;2022-12-10T02:09:29;17.77;;;12.10;;
8596;SDS011;4336;49.310;8.646;2022-12-10T02:12:03;18.20;;;12.57;;
8596;SDS011;4336;49.310;8.646;2022-12-10T02:17:19;15.50;;;12.33;;
8596;SDS011;4336;49.310;8.646;2022-12-10T02:22:21;17.63;;;12.90;;
8596;SDS011;4336;49.310;8.646;2022-12-10T02:24:49;22.47;;;14.00;;
8596;SDS011;4336;49.310;8.646;2022-12-10T02:27:29;20.97;;;14.00;;
8596;SDS011;4336;49.310;8.646;2022-12-10T02:29:57;17.67;;;12.77;;
8596;SDS011;4336;49.310;8.646;2022-12-10T02:32:27;21.33;;;12.87;;
8596;SDS011;4336;49.310;8.646;2022-12-10T02:34:59;17.47;;;12.67;;
8596;SDS011;4336;49.310;8.646;2022-12-10T02:37:29;18.50;;;13.50;;
8596;SDS011;4336;49.310;8.646;2022-12-10T02:39:58;16.13;;;12.80;;
8596;SDS011;4336;49.310;8.646;2022-12-10T02:42:27;15.63;;;12.37;;
8596;SDS011;4336;49.310;8.646;2022-12-10T02:44:55;18.00;;;12.67;;
8596;SDS011;4336;49.310;8.646;2022-12-10T02:47:22;17.47;;;12.50;;
8596;SDS011;4336;49.310;8.646;2022-12-10T02:49:50;19.83;;;13.10;;
8596;SDS011;4336;49.310;8.646;2022-12-10T02:52:17;22.63;;;12.73;;
8596;SDS011;4336;49.310;8.646;2022-12-10T02:54:48;21.47;;;13.30;;
8596;SDS011;4336;49.310;8.646;2022-12-10T02:57:43;15.93;;;12.80;;
8596;SDS011;4336;49.310;8.646;2022-12-10T03:00:16;18.53;;;13.27;;
8596;SDS011;4336;49.310;8.646;2022-12-10T03:05:53;17.47;;;12.73;;
8596;SDS011;4336;49.310;8.646;2022-12-10T03:08:33;14.57;;;11.13;;
8596;SDS011;4336;49.310;8.646;2022-12-10T03:11:20;16.10;;;12.17;;
8596;SDS011;4336;49.310;8.646;2022-12-10T03:14:03;16.90;;;13.30;;
8596;SDS011;4336;49.310;8.646;2022-12-10T03:16:31;20.37;;;14.57;;
8596;SDS011;4336;49.310;8.646;2022-12-10T03:19:00;17.33;;;12.33;;
8596;SDS011;4336;49.310;8.646;2022-12-10T03:21:27;16.53;;;13.10;;
8596;SDS011;4336;49.310;8.646;2022-12-10T03:23:54;19.70;;;13.37;;
8596;SDS011;4336;49.310;8.646;2022-12-10T03:26:21;21.10;;;13.80;;
8596;SDS011;4336;49.310;8.646;2022-12-10T03:28:52;18.17;;;12.97;;
8596;SDS011;4336;49.310;8.646;2022-12-10T03:31:21;19.33;;;13.53;;
8596;SDS011;4336;49.310;8.646;2022-12-10T03:33:48;17.73;;;13.20;;
8596;SDS011;4336;49.310;8.646;2022-12-10T03:36:14;19.30;;;13.30;;
8596;SDS011;4336;49.310;8.646;2022-12-10T03:38:41;18.37;;;12.37;;
8596;SDS011;4336;49.310;8.646;2022-12-10T03:41:08;18.90;;;13.40;;
8596;SDS011;4336;49.310;8.646;2022-12-10T03:43:34;16.20;;;11.90;;
8596;SDS011;4336;49.310;8.646;2022-12-10T03:46:01;22.83;;;14.03;;
8596;SDS011;4336;49.310;8.646;2022-12-10T03:48:27;18.63;;;13.60;;
8596;SDS011;4336;49.310;8.646;2022-12-10T03:50:53;19.17;;;13.53;;
8596;SDS011;4336;49.310;8.646;2022-12-10T03:53:19;15.50;;;12.00;;
8596;SDS011;4336;49.310;8.646;2022-12-10T03:55:46;17.10;;;13.10;;
8596;SDS011;4336;49.310;8.646;2022-12-10T03:58:12;20.20;;;13.77;;
8596;SDS011;4336;49.310;8.646;2022-12-10T04:00:38;17.90;;;13.30;;
8596;SDS011;4336;49.310;8.646;2022-12-10T04:03:04;17.80;;;13.67;;
8596;SDS011;4336;49.310;8.646;2022-12-10T04:05:30;19.93;;;13.50;;
8596;SDS011;4336;49.310;8.646;2022-12-10T04:07:56;21.70;;;13.53;;
8596;SDS011;4336;49.310;8.646;2022-12-10T04:10:22;20.40;;;13.47;;
8596;SDS011;4336;49.310;8.646;2022-12-10T04:12:48;19.13;;;11.40;;
8596;SDS011;4336;49.310;8.646;2022-12-10T04:15:37;19.70;;;13.00;;
8596;SDS011;4336;49.310;8.646;2022-12-10T04:18:22;25.83;;;14.73;;
8596;SDS011;4336;49.310;8.646;2022-12-10T04:20:48;17.90;;;12.87;;
8596;SDS011;4336;49.310;8.646;2022-12-10T04:23:33;18.80;;;13.63;;
8596;SDS011;4336;49.310;8.646;2022-12-10T04:26:18;17.17;;;13.27;;
8596;SDS011;4336;49.310;8.646;2022-12-10T04:29:03;19.90;;;13.50;;
8596;SDS011;4336;49.310;8.646;2022-12-10T04:31:29;18.13;;;12.07;;
8596;SDS011;4336;49.310;8.646;2022-12-10T04:33:55;20.90;;;13.23;;
8596;SDS011;4336;49.310;8.646;2022-12-10T04:36:22;19.97;;;13.23;;
8596;SDS011;4336;49.310;8.646;2022-12-10T04:38:48;19.40;;;13.70;;
8596;SDS011;4336;49.310;8.646;2022-12-10T04:41:14;19.97;;;13.50;;
8596;SDS011;4336;49.310;8.646;2022-12-10T04:43:41;18.33;;;12.90;;
8596;SDS011;4336;49.310;8.646;2022-12-10T04:46:08;21.10;;;13.93;;
8596;SDS011;4336;49.310;8.646;2022-12-10T04:48:34;21.80;;;13.30;;
8596;SDS011;4336;49.310;8.646;2022-12-10T04:51:01;18.87;;;14.03;;
8596;SDS011;4336;49.310;8.646;2022-12-10T04:53:27;21.60;;;13.67;;
8596;SDS011;4336;49.310;8.646;2022-12-10T04:55:53;20.50;;;13.43;;
8596;SDS011;4336;49.310;8.646;2022-12-10T04:58:19;21.60;;;14.80;;
8596;SDS011;4336;49.310;8.646;2022-12-10T05:00:45;36.93;;;14.87;;
8596;SDS011;4336;49.310;8.646;2022-12-10T05:03:11;21.43;;;14.47;;
8596;SDS011;4336;49.310;8.646;2022-12-10T05:05:37;27.37;;;15.57;;
8596;SDS011;4336;49.310;8.646;2022-12-10T05:08:03;19.90;;;13.40;;
8596;SDS011;4336;49.310;8.646;2022-12-10T05:10:30;18.90;;;12.97;;
8596;SDS011;4336;49.310;8.646;2022-12-10T05:12:56;19.20;;;13.57;;
8596;SDS011;4336;49.310;8.646;2022-12-10T05:15:22;18.37;;;13.47;;
8596;SDS011;4336;49.310;8.646;2022-12-10T05:17:48;25.33;;;13.70;;
8596;SDS011;4336;49.310;8.646;2022-12-10T05:20:14;19.73;;;13.27;;
8596;SDS011;4336;49.310;8.646;2022-12-10T05:22:40;23.97;;;14.10;;
8596;SDS011;4336;49.310;8.646;2022-12-10T05:25:25;19.23;;;12.40;;
8596;SDS011;4336;49.310;8.646;2022-12-10T05:27:51;18.90;;;13.67;;
8596;SDS011;4336;49.310;8.646;2022-12-10T05:30:18;19.33;;;13.73;;
8596;SDS011;4336;49.310;8.646;2022-12-10T05:32:44;22.27;;;14.23;;
8596;SDS011;4336;49.310;8.646;2022-12-10T05:35:10;20.80;;;14.30;;
8596;SDS011;4336;49.310;8.646;2022-12-10T05:37:36;21.70;;;14.37;;
8596;SDS011;4336;49.310;8.646;2022-12-10T05:40:03;16.33;;;12.13;;
8596;SDS011;4336;49.310;8.646;2022-12-10T05:42:29;19.27;;;13.57;;
8596;SDS011;4336;49.310;8.646;2022-12-10T05:44:55;23.57;;;14.30;;
8596;SDS011;4336;49.310;8.646;2022-12-10T05:47:21;18.50;;;13.93;;
8596;SDS011;4336;49.310;8.646;2022-12-10T05:49:47;20.50;;;14.37;;
8596;SDS011;4336;49.310;8.646;2022-12-10T05:52:13;20.13;;;14.17;;
8596;SDS011;4336;49.310;8.646;2022-12-10T05:54:39;27.30;;;14.30;;
8596;SDS011;4336;49.310;8.646;2022-12-10T05:57:05;20.50;;;13.83;;
8596;SDS011;4336;49.310;8.646;2022-12-10T05:59:33;22.40;;;14.10;;
8596;SDS011;4336;49.310;8.646;2022-12-10T06:01:59;21.43;;;15.03;;
8596;SDS011;4336;49.310;8.646;2022-12-10T06:04:25;19.83;;;13.63;;
8596;SDS011;4336;49.310;8.646;2022-12-10T06:06:51;22.53;;;14.47;;
8596;SDS011;4336;49.310;8.646;2022-12-10T06:09:17;18.87;;;12.33;;
8596;SDS011;4336;49.310;8.646;2022-12-10T06:11:44;21.23;;;13.97;;
8596;SDS011;4336;49.310;8.646;2022-12-10T06:14:10;19.40;;;13.80;;
8596;SDS011;4336;49.310;8.646;2022-12-10T06:16:36;22.43;;;13.77;;
8596;SDS011;4336;49.310;8.646;2022-12-10T06:19:04;20.53;;;14.03;;
8596;SDS011;4336;49.310;8.646;2022-12-10T06:21:30;18.47;;;11.90;;
8596;SDS011;4336;49.310;8.646;2022-12-10T06:23:56;22.97;;;13.77;;
8596;SDS011;4336;49.310;8.646;2022-12-10T06:26:24;21.20;;;13.97;;
8596;SDS011;4336;49.310;8.646;2022-12-10T06:28:51;21.90;;;14.60;;
8596;SDS011;4336;49.310;8.646;2022-12-10T06:31:18;19.47;;;13.47;;
8596;SDS011;4336;49.310;8.646;2022-12-10T06:33:44;19.97;;;14.00;;
8596;SDS011;4336;49.310;8.646;2022-12-10T06:36:11;21.20;;;13.63;;
8596;SDS011;4336;49.310;8.646;2022-12-10T06:38:38;21.50;;;15.33;;
8596;SDS011;4336;49.310;8.646;2022-12-10T06:41:04;21.60;;;14.57;;
8596;SDS011;4336;49.310;8.646;2022-12-10T06:43:31;21.97;;;14.23;;
8596;SDS011;4336;49.310;8.646;2022-12-10T06:45:57;22.77;;;13.60;;
8596;SDS011;4336;49.310;8.646;2022-12-10T06:48:23;20.50;;;14.40;;
8596;SDS011;4336;49.310;8.646;2022-12-10T06:50:49;24.10;;;14.83;;
8596;SDS011;4336;49.310;8.646;2022-12-10T06:53:15;21.60;;;14.90;;
8596;SDS011;4336;49.310;8.646;2022-12-10T06:55:41;17.30;;;12.10;;
8596;SDS011;4336;49.310;8.646;2022-12-10T06:58:07;25.30;;;14.63;;
8596;SDS011;4336;49.310;8.646;2022-12-10T07:00:34;19.57;;;13.97;;
8596;SDS011;4336;49.310;8.646;2022-12-10T07:03:00;24.20;;;14.67;;
8596;SDS011;4336;49.310;8.646;2022-12-10T07:05:26;25.43;;;14.23;;
8596;SDS011;4336;49.310;8.646;2022-12-10T07:07:52;20.53;;;13.60;;
8596;SDS011;4336;49.310;8.646;2022-12-10T07:10:18;20.30;;;13.90;;
8596;SDS011;4336;49.310;8.646;2022-12-10T07:12:46;21.83;;;14.30;;
8596;SDS011;4336;49.310;8.646;2022-12-10T07:15:12;19.93;;;13.90;;
8596;SDS011;4336;49.310;8.646;2022-12-10T07:17:38;26.37;;;15.40;;
8596;SDS011;4336;49.310;8.646;2022-12-10T07:20:04;19.70;;;13.67;;
8596;SDS011;4336;49.310;8.646;2022-12-10T07:22:31;21.27;;;14.67;;
8596;SDS011;4336;49.310;8.646;2022-12-10T07:24:57;21.23;;;12.83;;
8596;SDS011;4336;49.310;8.646;2022-12-10T07:27:23;21.67;;;14.23;;
8596;SDS011;4336;49.310;8.646;2022-12-10T07:29:49;20.53;;;14.73;;
8596;SDS011;4336;49.310;8.646;2022-12-10T07:32:15;20.93;;;13.20;;
8596;SDS011;4336;49.310;8.646;2022-12-10T07:34:41;22.30;;;14.87;;
8596;SDS011;4336;49.310;8.646;2022-12-10T07:37:08;21.60;;;13.47;;
8596;SDS011;4336;49.310;8.646;2022-12-10T07:39:34;21.63;;;15.07;;
8596;SDS011;4336;49.310;8.646;2022-12-10T07:42:00;21.47;;;15.33;;
8596;SDS011;4336;49.310;8.646;2022-12-10T07:44:27;20.47;;;14.33;;
8596;SDS011;4336;49.310;8.646;2022-12-10T07:46:54;22.77;;;14.43;;
8596;SDS011;4336;49.310;8.646;2022-12-10T07:49:20;20.13;;;14.00;;
8596;SDS011;4336;49.310;8.646;2022-12-10T07:51:47;20.53;;;14.00;;
8596;SDS011;4336;49.310;8.646;2022-12-10T07:54:13;18.53;;;13.60;;
8596;SDS011;4336;49.310;8.646;2022-12-10T07:56:39;20.83;;;13.80;;
8596;SDS011;4336;49.310;8.646;2022-12-10T07:59:06;20.13;;;13.37;;
8596;SDS011;4336;49.310;8.646;2022-12-10T08:01:32;21.17;;;15.07;;
8596;SDS011;4336;49.310;8.646;2022-12-10T08:03:58;24.40;;;13.97;;
8596;SDS011;4336;49.310;8.646;2022-12-10T08:06:25;24.87;;;14.67;;
8596;SDS011;4336;49.310;8.646;2022-12-10T08:08:52;21.67;;;14.03;;
8596;SDS011;4336;49.310;8.646;2022-12-10T08:11:18;22.27;;;14.80;;
8596;SDS011;4336;49.310;8.646;2022-12-10T08:13:45;22.27;;;14.30;;
8596;SDS011;4336;49.310;8.646;2022-12-10T08:16:19;19.20;;;13.67;;
8596;SDS011;4336;49.310;8.646;2022-12-10T08:18:48;21.43;;;12.37;;
8596;SDS011;4336;49.310;8.646;2022-12-10T08:21:18;19.73;;;13.63;;
8596;SDS011;4336;49.310;8.646;2022-12-10T08:23:45;21.83;;;14.57;;
8596;SDS011;4336;49.310;8.646;2022-12-10T08:26:13;19.90;;;13.93;;
8596;SDS011;4336;49.310;8.646;2022-12-10T08:28:39;20.77;;;13.63;;
8596;SDS011;4336;49.310;8.646;2022-12-10T08:31:06;17.53;;;13.00;;
8596;SDS011;4336;49.310;8.646;2022-12-10T08:33:33;22.40;;;13.80;;
8596;SDS011;4336;49.310;8.646;2022-12-10T08:36:00;17.50;;;13.30;;
8596;SDS011;4336;49.310;8.646;2022-12-10T08:38:29;23.37;;;15.80;;
8596;SDS011;4336;49.310;8.646;2022-12-10T08:40:55;41.27;;;14.80;;
8596;SDS011;4336;49.310;8.646;2022-12-10T08:43:21;51.73;;;15.07;;
8596;SDS011;4336;49.310;8.646;2022-12-10T08:45:47;25.37;;;13.57;;
8596;SDS011;4336;49.310;8.646;2022-12-10T08:48:14;30.77;;;14.73;;
8596;SDS011;4336;49.310;8.646;2022-12-10T08:50:40;23.93;;;13.93;;
8596;SDS011;4336;49.310;8.646;2022-12-10T08:53:06;22.13;;;13.63;;
8596;SDS011;4336;49.310;8.646;2022-12-10T08:55:33;21.20;;;13.67;;
8596;SDS011;4336;49.310;8.646;2022-12-10T08:57:59;17.20;;;12.40;;
8596;SDS011;4336;49.310;8.646;2022-12-10T09:00:25;18.47;;;13.30;;
8596;SDS011;4336;49.310;8.646;2022-12-10T09:02:51;15.70;;;13.27;;
8596;SDS011;4336;49.310;8.646;2022-12-10T09:05:18;20.93;;;12.50;;
8596;SDS011;4336;49.310;8.646;2022-12-10T09:07:44;14.03;;;12.07;;
8596;SDS011;4336;49.310;8.646;2022-12-10T09:10:10;18.33;;;12.90;;
8596;SDS011;4336;49.310;8.646;2022-12-10T09:12:37;22.73;;;13.53;;
8596;SDS011;4336;49.310;8.646;2022-12-10T09:15:04;16.20;;;12.43;;
8596;SDS011;4336;49.310;8.646;2022-12-10T09:17:30;17.10;;;12.53;;
8596;SDS011;4336;49.310;8.646;2022-12-10T09:19:56;17.37;;;13.43;;
8596;SDS011;4336;49.310;8.646;2022-12-10T09:22:23;19.83;;;12.90;;
8596;SDS011;4336;49.310;8.646;2022-12-10T09:24:49;20.33;;;14.73;;
8596;SDS011;4336;49.310;8.646;2022-12-10T09:27:15;15.63;;;12.57;;
8596;SDS011;4336;49.310;8.646;2022-12-10T09:29:41;16.27;;;13.47;;
8596;SDS011;4336;49.310;8.646;2022-12-10T09:32:07;25.93;;;14.00;;
8596;SDS011;4336;49.310;8.646;2022-12-10T09:34:33;22.77;;;12.13;;
8596;SDS011;4336;49.310;8.646;2022-12-10T09:36:59;25.93;;;12.73;;
8596;SDS011;4336;49.310;8.646;2022-12-10T09:39:25;18.00;;;13.70;;
8596;SDS011;4336;49.310;8.646;2022-12-10T09:46:57;18.40;;;11.63;;
8596;SDS011;4336;49.310;8.646;2022-12-10T09:49:38;17.60;;;12.63;;
8596;SDS011;4336;49.310;8.646;2022-12-10T09:52:09;18.40;;;13.40;;
8596;SDS011;4336;49.310;8.646;2022-12-10T09:54:49;16.93;;;11.17;;
8596;SDS011;4336;49.310;8.646;2022-12-10T09:57:20;17.83;;;13.20;;
8596;SDS011;4336;49.310;8.646;2022-12-10T09:59:48;17.53;;;12.03;;
8596;SDS011;4336;49.310;8.646;2022-12-10T10:02:22;15.83;;;11.67;;
8596;SDS011;4336;49.310;8.646;2022-12-10T10:04:50;22.10;;;13.00;;
8596;SDS011;4336;49.310;8.646;2022-12-10T10:07:24;18.73;;;12.27;;
8596;SDS011;4336;49.310;8.646;2022-12-10T10:12:43;21.70;;;13.97;;
8596;SDS011;4336;49.310;8.646;2022-12-10T10:15:12;17.97;;;11.83;;
8596;SDS011;4336;49.310;8.646;2022-12-10T10:17:39;18.97;;;13.47;;
8596;SDS011;4336;49.310;8.646;2022-12-10T10:20:07;20.90;;;12.87;;
8596;SDS011;4336;49.310;8.646;2022-12-10T10:22:34;20.37;;;13.53;;
8596;SDS011;4336;49.310;8.646;2022-12-10T10:25:01;21.60;;;13.80;;
8596;SDS011;4336;49.310;8.646;2022-12-10T10:27:28;16.10;;;11.83;;
8596;SDS011;4336;49.310;8.646;2022-12-10T10:29:56;17.87;;;12.73;;
8596;SDS011;4336;49.310;8.646;2022-12-10T10:32:24;30.90;;;17.90;;
8596;SDS011;4336;49.310;8.646;2022-12-10T10:34:54;18.10;;;13.20;;
8596;SDS011;4336;49.310;8.646;2022-12-10T10:37:22;17.73;;;12.90;;
8596;SDS011;4336;49.310;8.646;2022-12-10T10:39:50;18.63;;;13.90;;
8596;SDS011;4336;49.310;8.646;2022-12-10T10:42:39;16.47;;;12.30;;
8596;SDS011;4336;49.310;8.646;2022-12-10T10:45:04;17.50;;;13.37;;
8596;SDS011;4336;49.310;8.646;2022-12-10T10:47:32;17.13;;;12.87;;
8596;SDS011;4336;49.310;8.646;2022-12-10T10:49:58;18.70;;;13.17;;
8596;SDS011;4336;49.310;8.646;2022-12-10T10:52:29;18.77;;;13.93;;
8596;SDS011;4336;49.310;8.646;2022-12-10T10:54:55;16.00;;;11.43;;
8596;SDS011;4336;49.310;8.646;2022-12-10T10:57:23;15.87;;;13.00;;
8596;SDS011;4336;49.310;8.646;2022-12-10T10:59:54;15.50;;;11.93;;
8596;SDS011;4336;49.310;8.646;2022-12-10T11:02:23;17.83;;;12.57;;
8596;SDS011;4336;49.310;8.646;2022-12-10T11:04:52;17.33;;;13.50;;
8596;SDS011;4336;49.310;8.646;2022-12-10T11:07:38;16.57;;;12.57;;
8596;SDS011;4336;49.310;8.646;2022-12-10T11:10:18;17.07;;;12.40;;
8596;SDS011;4336;49.310;8.646;2022-12-10T11:12:53;14.90;;;11.43;;
8596;SDS011;4336;49.310;8.646;2022-12-10T11:17:50;17.70;;;10.50;;
8596;SDS011;4336;49.310;8.646;2022-12-10T11:20:20;18.73;;;13.03;;
8596;SDS011;4336;49.310;8.646;2022-12-10T11:22:54;17.87;;;11.67;;
8596;SDS011;4336;49.310;8.646;2022-12-10T11:25:33;16.00;;;11.93;;
8596;SDS011;4336;49.310;8.646;2022-12-10T11:30:31;17.17;;;12.27;;
8596;SDS011;4336;49.310;8.646;2022-12-10T11:33:19;19.53;;;13.63;;
8596;SDS011;4336;49.310;8.646;2022-12-10T11:35:50;16.87;;;12.50;;
8596;SDS011;4336;49.310;8.646;2022-12-10T11:38:26;13.43;;;10.43;;
8596;SDS011;4336;49.310;8.646;2022-12-10T11:49:19;12.43;;;10.97;;
8596;SDS011;4336;49.310;8.646;2022-12-10T11:52:01;15.90;;;12.77;;
8596;SDS011;4336;49.310;8.646;2022-12-10T11:57:07;14.23;;;10.03;;
8596;SDS011;4336;49.310;8.646;2022-12-10T11:59:36;15.67;;;12.30;;
8596;SDS011;4336;49.310;8.646;2022-12-10T12:02:22;18.13;;;12.37;;
8596;SDS011;4336;49.310;8.646;2022-12-10T12:04:54;15.47;;;11.13;;
8596;SDS011;4336;49.310;8.646;2022-12-10T12:17:40;15.33;;;12.20;;
8596;SDS011;4336;49.310;8.646;2022-12-10T12:22:54;15.93;;;11.10;;
8596;SDS011;4336;49.310;8.646;2022-12-10T12:25:23;14.10;;;11.43;;
8596;SDS011;4336;49.310;8.646;2022-12-10T12:27:53;14.70;;;11.77;;
8596;SDS011;4336;49.310;8.646;2022-12-10T12:30:21;14.70;;;11.27;;
8596;SDS011;4336;49.310;8.646;2022-12-10T12:32:55;14.07;;;11.23;;
8596;SDS011;4336;49.310;8.646;2022-12-10T12:37:59;14.63;;;11.20;;
8596;SDS011;4336;49.310;8.646;2022-12-10T12:40:34;15.37;;;11.50;;
8596;SDS011;4336;49.310;8.646;2022-12-10T12:43:03;14.43;;;11.23;;
8596;SDS011;4336;49.310;8.646;2022-12-10T12:45:49;14.77;;;10.37;;
8596;SDS011;4336;49.310;8.646;2022-12-10T12:48:26;12.50;;;10.90;;
8596;SDS011;4336;49.310;8.646;2022-12-10T12:51:02;13.07;;;9.73;;
8596;SDS011;4336;49.310;8.646;2022-12-10T12:53:29;12.33;;;10.97;;
8596;SDS011;4336;49.310;8.646;2022-12-10T13:04:09;14.30;;;10.30;;
8596;SDS011;4336;49.310;8.646;2022-12-10T13:06:38;12.67;;;10.40;;
8596;SDS011;4336;49.310;8.646;2022-12-10T13:11:40;12.60;;;10.10;;
8596;SDS011;4336;49.310;8.646;2022-12-10T13:34:41;11.70;;;10.50;;
8596;SDS011;4336;49.310;8.646;2022-12-10T13:39:47;11.13;;;9.90;;
8596;SDS011;4336;49.310;8.646;2022-12-10T13:45:00;15.00;;;10.43;;
8596;SDS011;4336;49.310;8.646;2022-12-10T13:50:04;11.10;;;9.93;;
8596;SDS011;4336;49.310;8.646;2022-12-10T13:52:33;14.20;;;11.73;;
8596;SDS011;4336;49.310;8.646;2022-12-10T13:55:07;13.23;;;10.27;;
8596;SDS011;4336;49.310;8.646;2022-12-10T14:00:07;14.60;;;11.93;;
8596;SDS011;4336;49.310;8.646;2022-12-10T14:05:14;13.53;;;10.80;;
8596;SDS011;4336;49.310;8.646;2022-12-10T14:07:45;11.70;;;9.27;;
8596;SDS011;4336;49.310;8.646;2022-12-10T14:10:13;17.23;;;11.37;;
8596;SDS011;4336;49.310;8.646;2022-12-10T14:12:41;13.20;;;10.97;;
8596;SDS011;4336;49.310;8.646;2022-12-10T14:15:13;13.53;;;11.43;;
8596;SDS011;4336;49.310;8.646;2022-12-10T14:17:41;12.87;;;11.00;;
8596;SDS011;4336;49.310;8.646;2022-12-10T14:20:11;12.37;;;11.07;;
8596;SDS011;4336;49.310;8.646;2022-12-10T14:22:43;16.73;;;11.40;;
8596;SDS011;4336;49.310;8.646;2022-12-10T14:25:14;13.53;;;10.57;;
8596;SDS011;4336;49.310;8.646;2022-12-10T14:27:41;12.83;;;10.67;;
8596;SDS011;4336;49.310;8.646;2022-12-10T14:30:21;13.30;;;10.33;;
8596;SDS011;4336;49.310;8.646;2022-12-10T14:32:47;15.33;;;11.20;;
8596;SDS011;4336;49.310;8.646;2022-12-10T14:35:24;15.53;;;11.97;;
8596;SDS011;4336;49.310;8.646;2022-12-10T14:37:51;12.13;;;10.60;;
8596;SDS011;4336;49.310;8.646;2022-12-10T14:40:19;13.17;;;10.63;;
8596;SDS011;4336;49.310;8.646;2022-12-10T14:42:47;12.70;;;10.80;;
8596;SDS011;4336;49.310;8.646;2022-12-10T14:45:14;14.07;;;11.50;;
8596;SDS011;4336;49.310;8.646;2022-12-10T14:47:41;12.50;;;9.53;;
8596;SDS011;4336;49.310;8.646;2022-12-10T14:50:11;13.00;;;10.80;;
8596;SDS011;4336;49.310;8.646;2022-12-10T14:52:45;14.07;;;11.40;;
8596;SDS011;4336;49.310;8.646;2022-12-10T14:55:15;11.87;;;9.13;;
8596;SDS011;4336;49.310;8.646;2022-12-10T14:57:47;12.93;;;10.10;;
8596;SDS011;4336;49.310;8.646;2022-12-10T15:00:16;11.57;;;9.07;;
8596;SDS011;4336;49.310;8.646;2022-12-10T15:03:29;14.37;;;11.10;;
8596;SDS011;4336;49.310;8.646;2022-12-10T15:05:33;12.10;;;10.83;;
8596;SDS011;4336;49.310;8.646;2022-12-10T15:08:04;13.57;;;11.90;;
8596;SDS011;4336;49.310;8.646;2022-12-10T15:10:38;12.13;;;10.63;;
8596;SDS011;4336;49.310;8.646;2022-12-10T15:13:05;13.80;;;10.73;;
8596;SDS011;4336;49.310;8.646;2022-12-10T15:15:36;14.77;;;11.53;;
8596;SDS011;4336;49.310;8.646;2022-12-10T15:20:39;15.27;;;10.50;;
8596;SDS011;4336;49.310;8.646;2022-12-10T15:26:28;11.37;;;10.17;;
8596;SDS011;4336;49.310;8.646;2022-12-10T15:28:50;12.93;;;10.90;;
8596;SDS011;4336;49.310;8.646;2022-12-10T15:33:56;16.77;;;11.27;;
8596;SDS011;4336;49.310;8.646;2022-12-10T15:36:39;15.13;;;12.13;;
8596;SDS011;4336;49.310;8.646;2022-12-10T15:39:43;12.83;;;10.53;;
8596;SDS011;4336;49.310;8.646;2022-12-10T15:42:00;11.40;;;9.90;;
8596;SDS011;4336;49.310;8.646;2022-12-10T15:47:09;14.77;;;10.90;;
8596;SDS011;4336;49.310;8.646;2022-12-10T15:49:37;15.80;;;11.50;;
8596;SDS011;4336;49.310;8.646;2022-12-10T15:52:04;13.03;;;10.67;;
8596;SDS011;4336;49.310;8.646;2022-12-10T15:54:34;14.87;;;12.37;;
8596;SDS011;4336;49.310;8.646;2022-12-10T15:59:40;16.17;;;11.87;;
8596;SDS011;4336;49.310;8.646;2022-12-10T16:04:51;17.13;;;12.83;;
8596;SDS011;4336;49.310;8.646;2022-12-10T16:07:17;14.30;;;10.37;;
8596;SDS011;4336;49.310;8.646;2022-12-10T16:09:45;16.07;;;11.47;;
8596;SDS011;4336;49.310;8.646;2022-12-10T16:12:12;17.50;;;13.13;;
8596;SDS011;4336;49.310;8.646;2022-12-10T16:14:43;16.80;;;11.67;;
8596;SDS011;4336;49.310;8.646;2022-12-10T16:17:11;14.40;;;12.63;;
8596;SDS011;4336;49.310;8.646;2022-12-10T16:19:37;12.80;;;11.00;;
8596;SDS011;4336;49.310;8.646;2022-12-10T16:22:04;14.73;;;12.00;;
8596;SDS011;4336;49.310;8.646;2022-12-10T16:24:30;15.07;;;11.67;;
8596;SDS011;4336;49.310;8.646;2022-12-10T16:26:56;16.27;;;11.50;;
8596;SDS011;4336;49.310;8.646;2022-12-10T16:29:22;13.33;;;11.30;;
8596;SDS011;4336;49.310;8.646;2022-12-10T16:31:49;19.27;;;14.90;;
8596;SDS011;4336;49.310;8.646;2022-12-10T16:34:15;19.60;;;12.97;;
8596;SDS011;4336;49.310;8.646;2022-12-10T16:36:41;17.93;;;13.10;;
8596;SDS011;4336;49.310;8.646;2022-12-10T16:39:07;18.00;;;13.30;;
8596;SDS011;4336;49.310;8.646;2022-12-10T16:41:34;17.77;;;13.33;;
8596;SDS011;4336;49.310;8.646;2022-12-10T16:44:01;17.33;;;12.73;;
8596;SDS011;4336;49.310;8.646;2022-12-10T16:46:27;18.03;;;13.60;;
8596;SDS011;4336;49.310;8.646;2022-12-10T16:48:53;17.20;;;12.53;;
8596;SDS011;4336;49.310;8.646;2022-12-10T16:51:28;17.40;;;12.90;;
8596;SDS011;4336;49.310;8.646;2022-12-10T16:53:56;15.27;;;11.47;;